Time;durP1;ratioP1;P1;durP2;ratioP2;P2;SDS_P1;SDS_P2;PMS_P1;PMS_P2;Temp;Humidity;BMP_temperature;BMP_pressure;BME280_temperature;BME280_humidity;BME280_pressure;Samples;Min_cycle;Max_cycle;Signal;HPM_P1;HPM_P2
2023/05/22 00:02:08;;;;;;;5.10;3.40;;;;;;;;;;107567;285;41911;-42
2023/05/22 00:04:42;;;;;;;5.00;3.50;;;;;;;;;;107647;286;44985;-41
2023/05/22 00:07:16;;;;;;;5.10;3.60;;;;;;;;;;107509;283;175578;-42
2023/05/22 00:09:49;;;;;;;5.20;3.40;;;;;;;;;;107613;283;42650;-42
2023/05/22 00:12:23;;;;;;;5.30;3.70;;;;;;;;;;107606;283;41913;-43
2023/05/22 00:14:57;;;;;;;5.00;3.40;;;;;;;;;;107590;283;46131;-41
2023/05/22 00:17:32;;;;;;;5.60;3.50;;;;;;;;;;107607;285;40103;-41
2023/05/22 00:20:09;;;;;;;5.80;3.70;;;;;;;;;;107640;283;42669;-41
2023/05/22 00:22:43;;;;;;;5.80;3.80;;;;;;;;;;107582;286;43120;-41
2023/05/22 00:25:19;;;;;;;5.80;3.50;;;;;;;;;;107613;287;38529;-43
2023/05/22 00:27:53;;;;;;;5.40;3.60;;;;;;;;;;107634;283;40582;-42
2023/05/22 00:30:26;;;;;;;5.50;3.40;;;;;;;;;;107612;283;42849;-42
2023/05/22 00:33:01;;;;;;;5.60;3.60;;;;;;;;;;107425;284;42024;-40
2023/05/22 00:35:34;;;;;;;5.70;3.70;;;;;;;;;;107612;282;40235;-44
2023/05/22 00:38:09;;;;;;;5.60;3.70;;;;;;;;;;107614;278;39451;-42
2023/05/22 00:40:43;;;;;;;5.80;3.60;;;;;;;;;;107593;286;42651;-43
2023/05/22 00:43:18;;;;;;;5.50;3.50;;;;;;;;;;107561;283;41856;-44
2023/05/22 00:45:52;;;;;;;5.80;3.90;;;;;;;;;;107624;283;39785;-41
2023/05/22 00:48:27;;;;;;;5.80;3.70;;;;;;;;;;107601;285;39623;-43
2023/05/22 00:51:02;;;;;;;5.50;3.90;;;;;;;;;;107621;286;43863;-43
2023/05/22 00:53:37;;;;;;;5.90;3.80;;;;;;;;;;107570;283;42453;-41
2023/05/22 00:56:11;;;;;;;5.60;3.70;;;;;;;;;;107603;286;38739;-42
2023/05/22 00:58:45;;;;;;;5.60;3.60;;;;;;;;;;107589;283;39825;-40
2023/05/22 01:01:19;;;;;;;5.30;3.60;;;;;;;;;;107595;286;43035;-40
2023/05/22 01:03:54;;;;;;;5.00;3.70;;;;;;;;;;107451;283;175596;-42
2023/05/22 01:06:30;;;;;;;5.90;3.70;;;;;;;;;;107620;283;38749;-42
2023/05/22 01:09:05;;;;;;;5.70;3.60;;;;;;;;;;107646;278;39698;-43
2023/05/22 01:11:48;;;;;;;5.80;3.90;;;;;;;;;;107627;283;43999;-42
2023/05/22 01:14:30;;;;;;;6.20;4.10;;;;;;;;;;107607;285;42369;-41
2023/05/22 01:17:11;;;;;;;6.30;4.00;;;;;;;;;;107243;285;529480;-45
2023/05/22 01:20:05;;;;;;;5.70;3.80;;;;;;;;;;107619;283;39770;-42
2023/05/22 01:23:07;;;;;;;5.70;3.60;;;;;;;;;;107617;286;43987;-42
2023/05/22 01:26:07;;;;;;;5.40;3.60;;;;;;;;;;107456;283;175567;-42
2023/05/22 01:28:59;;;;;;;5.20;3.60;;;;;;;;;;107583;283;38735;-41
2023/05/22 01:31:39;;;;;;;5.70;4.00;;;;;;;;;;107622;283;39879;-41
2023/05/22 01:34:15;;;;;;;5.50;3.80;;;;;;;;;;107580;283;43942;-41
2023/05/22 01:36:50;;;;;;;5.60;3.70;;;;;;;;;;107629;283;41865;-41
2023/05/22 01:39:24;;;;;;;5.60;3.90;;;;;;;;;;107627;283;38529;-40
2023/05/22 01:41:58;;;;;;;5.40;3.60;;;;;;;;;;107611;286;39842;-43
2023/05/22 01:44:32;;;;;;;5.70;3.80;;;;;;;;;;107542;283;42647;-41
2023/05/22 01:47:07;;;;;;;5.10;3.60;;;;;;;;;;107614;285;42319;-42
2023/05/22 01:49:41;;;;;;;5.60;3.50;;;;;;;;;;107626;285;38969;-45
2023/05/22 01:52:22;;;;;;;5.60;3.90;;;;;;;;;;107600;282;39648;-42
2023/05/22 01:55:02;;;;;;;5.20;3.60;;;;;;;;;;107454;287;43192;-40
2023/05/22 01:57:46;;;;;;;5.20;3.70;;;;;;;;;;107643;282;42150;-41
2023/05/22 02:00:22;;;;;;;5.90;3.90;;;;;;;;;;107574;283;39414;-41
2023/05/22 02:03:05;;;;;;;5.20;3.60;;;;;;;;;;107511;285;175541;-40
2023/05/22 02:05:42;;;;;;;5.30;3.70;;;;;;;;;;107558;283;42875;-41
2023/05/22 02:08:17;;;;;;;5.80;4.00;;;;;;;;;;107610;283;41911;-42
2023/05/22 02:10:52;;;;;;;5.60;3.80;;;;;;;;;;107630;283;38778;-42
2023/05/22 02:13:26;;;;;;;5.70;3.90;;;;;;;;;;107619;285;39462;-42
2023/05/22 02:16:03;;;;;;;5.90;4.00;;;;;;;;;;107600;285;42649;-41
2023/05/22 02:18:36;;;;;;;6.20;3.70;;;;;;;;;;107602;282;41909;-42
2023/05/22 02:21:10;;;;;;;5.40;3.70;;;;;;;;;;107631;283;38722;-41
2023/05/22 02:23:44;;;;;;;5.10;3.60;;;;;;;;;;107627;283;39848;-41
2023/05/22 02:26:17;;;;;;;5.10;3.80;;;;;;;;;;107604;283;43177;-42
2023/05/22 02:28:51;;;;;;;5.80;3.50;;;;;;;;;;107620;285;42228;-45
2023/05/22 02:31:26;;;;;;;5.50;3.90;;;;;;;;;;107642;283;39052;-41
2023/05/22 02:34:00;;;;;;;5.40;3.70;;;;;;;;;;107691;283;39823;-41
2023/05/22 02:36:33;;;;;;;5.70;3.80;;;;;;;;;;107554;283;42629;-41
2023/05/22 02:39:07;;;;;;;5.80;4.00;;;;;;;;;;107649;278;42124;-42
2023/05/22 02:41:41;;;;;;;5.70;3.90;;;;;;;;;;107649;282;38592;-41
2023/05/22 02:44:14;;;;;;;5.90;3.90;;;;;;;;;;107497;283;175548;-41
2023/05/22 02:46:48;;;;;;;5.50;3.70;;;;;;;;;;107584;282;42681;-42
2023/05/22 02:49:22;;;;;;;5.60;4.00;;;;;;;;;;107601;283;41882;-42
2023/05/22 02:51:55;;;;;;;5.50;3.80;;;;;;;;;;107643;278;38803;-41
2023/05/22 02:54:29;;;;;;;5.60;3.90;;;;;;;;;;107655;283;39431;-42
2023/05/22 02:57:03;;;;;;;5.70;3.80;;;;;;;;;;107475;283;175563;-40
2023/05/22 02:59:37;;;;;;;5.20;3.60;;;;;;;;;;107613;286;42502;-42
2023/05/22 03:02:12;;;;;;;5.40;3.80;;;;;;;;;;107618;283;38555;-41
2023/05/22 03:04:46;;;;;;;5.30;3.30;;;;;;;;;;107628;283;40018;-42
2023/05/22 03:07:20;;;;;;;5.90;3.70;;;;;;;;;;107596;283;42685;-40
2023/05/22 03:09:53;;;;;;;5.60;3.70;;;;;;;;;;107700;283;42084;-40
2023/05/22 03:12:27;;;;;;;6.30;3.90;;;;;;;;;;107626;283;39794;-41
2023/05/22 03:15:00;;;;;;;5.80;3.80;;;;;;;;;;107649;283;39428;-44
2023/05/22 03:17:34;;;;;;;4.90;3.90;;;;;;;;;;107584;283;42900;-40
2023/05/22 03:20:15;;;;;;;5.60;4.00;;;;;;;;;;107642;283;41853;-42
2023/05/22 03:22:49;;;;;;;5.30;3.60;;;;;;;;;;107621;286;38589;-40
2023/05/22 03:25:23;;;;;;;5.40;3.80;;;;;;;;;;107608;286;39496;-42
2023/05/22 03:27:56;;;;;;;5.20;3.70;;;;;;;;;;107592;283;42619;-41
2023/05/22 03:30:30;;;;;;;5.40;3.70;;;;;;;;;;107631;286;41979;-42
2023/05/22 03:33:04;;;;;;;5.10;3.60;;;;;;;;;;107660;286;38950;-44
2023/05/22 03:35:37;;;;;;;5.40;3.90;;;;;;;;;;107666;283;39439;-41
2023/05/22 03:38:11;;;;;;;5.60;3.70;;;;;;;;;;107614;286;42932;-40
2023/05/22 03:40:44;;;;;;;5.00;3.60;;;;;;;;;;107650;286;41831;-42
2023/05/22 03:43:18;;;;;;;5.50;3.80;;;;;;;;;;107625;278;38564;-42
2023/05/22 03:45:52;;;;;;;5.60;3.80;;;;;;;;;;107675;286;41133;-41
2023/05/22 03:48:26;;;;;;;5.40;3.70;;;;;;;;;;107592;286;42832;-42
2023/05/22 03:51:00;;;;;;;5.90;3.50;;;;;;;;;;107679;286;42463;-41
2023/05/22 03:53:35;;;;;;;5.50;3.90;;;;;;;;;;107677;282;38584;-44
2023/05/22 03:56:10;;;;;;;5.00;3.70;;;;;;;;;;107635;287;40725;-41
2023/05/22 03:58:43;;;;;;;5.10;3.90;;;;;;;;;;107566;283;42864;-41
2023/05/22 04:01:18;;;;;;;6.20;3.80;;;;;;;;;;107601;286;41865;-43
2023/05/22 04:03:52;;;;;;;5.40;3.70;;;;;;;;;;107640;283;38550;-40
2023/05/22 04:06:25;;;;;;;5.70;3.90;;;;;;;;;;107634;283;40106;-42
2023/05/22 04:09:00;;;;;;;5.10;3.70;;;;;;;;;;107597;283;42881;-41
2023/05/22 04:11:34;;;;;;;5.30;3.80;;;;;;;;;;107649;283;42137;-41
2023/05/22 04:14:08;;;;;;;5.30;3.60;;;;;;;;;;107676;286;38541;-43
2023/05/22 04:16:42;;;;;;;5.80;3.90;;;;;;;;;;107649;283;39524;-40
2023/05/22 04:19:16;;;;;;;6.10;4.00;;;;;;;;;;107585;286;43913;-41
2023/05/22 04:21:51;;;;;;;5.70;3.80;;;;;;;;;;107613;278;42105;-44
2023/05/22 04:24:26;;;;;;;5.30;3.70;;;;;;;;;;107603;283;39851;-41
2023/05/22 04:27:01;;;;;;;5.30;3.60;;;;;;;;;;107505;285;41083;-42
2023/05/22 04:29:35;;;;;;;5.30;3.60;;;;;;;;;;107615;283;42833;-42
2023/05/22 04:32:10;;;;;;;5.50;3.60;;;;;;;;;;107654;286;43131;-41
2023/05/22 04:34:44;;;;;;;5.70;3.90;;;;;;;;;;107643;283;38799;-41
2023/05/22 04:37:18;;;;;;;6.50;4.10;;;;;;;;;;107634;283;39467;-42
2023/05/22 04:39:56;;;;;;;5.90;3.90;;;;;;;;;;107569;283;43066;-42
2023/05/22 04:42:30;;;;;;;6.20;4.20;;;;;;;;;;107609;286;42280;-41
2023/05/22 04:45:05;;;;;;;6.60;4.10;;;;;;;;;;107632;283;39832;-42
2023/05/22 04:47:40;;;;;;;6.10;4.30;;;;;;;;;;107637;283;39459;-41
2023/05/22 04:50:15;;;;;;;6.80;4.50;;;;;;;;;;107591;286;48683;-41
2023/05/22 04:52:48;;;;;;;6.70;4.60;;;;;;;;;;107633;286;42260;-40
2023/05/22 04:55:22;;;;;;;7.50;4.70;;;;;;;;;;107623;286;38543;-42
2023/05/22 04:57:56;;;;;;;6.50;4.30;;;;;;;;;;107628;283;39676;-41
2023/05/22 05:00:29;;;;;;;6.90;4.80;;;;;;;;;;107738;282;50968;-40
2023/05/22 05:03:06;;;;;;;7.70;4.60;;;;;;;;;;107622;283;42142;-41
2023/05/22 05:05:40;;;;;;;6.60;4.60;;;;;;;;;;107508;283;192032;-41
2023/05/22 05:08:14;;;;;;;6.30;4.70;;;;;;;;;;107634;285;40185;-41
2023/05/22 05:10:48;;;;;;;7.80;4.80;;;;;;;;;;107586;283;49695;-41
2023/05/22 05:13:21;;;;;;;8.30;4.70;;;;;;;;;;107632;285;42674;-41
2023/05/22 05:16:10;;;;;;;6.90;4.50;;;;;;;;;;107475;283;39881;-40
2023/05/22 05:18:43;;;;;;;7.80;5.00;;;;;;;;;;107617;283;39855;-44
2023/05/22 05:21:20;;;;;;;8.40;5.20;;;;;;;;;;107622;282;48698;-43
2023/05/22 05:23:53;;;;;;;8.30;5.20;;;;;;;;;;107638;283;41946;-43
2023/05/22 05:26:27;;;;;;;7.50;5.50;;;;;;;;;;107605;283;38574;-43
2023/05/22 05:29:03;;;;;;;8.00;5.40;;;;;;;;;;107609;283;39628;-43
2023/05/22 05:31:38;;;;;;;7.50;5.00;;;;;;;;;;107637;286;49993;-43
2023/05/22 05:34:15;;;;;;;7.00;5.30;;;;;;;;;;107655;283;41874;-43
2023/05/22 05:36:52;;;;;;;7.20;5.40;;;;;;;;;;107675;285;38594;-43
2023/05/22 05:39:27;;;;;;;7.80;5.50;;;;;;;;;;107597;283;39416;-43
2023/05/22 05:42:01;;;;;;;8.60;5.50;;;;;;;;;;107627;283;43004;-44
2023/05/22 05:44:35;;;;;;;7.90;5.50;;;;;;;;;;107627;283;41947;-45
2023/05/22 05:47:12;;;;;;;7.90;5.40;;;;;;;;;;107627;283;38757;-43
2023/05/22 05:49:47;;;;;;;7.80;5.40;;;;;;;;;;107586;282;39629;-44
2023/05/22 05:52:23;;;;;;;6.80;5.20;;;;;;;;;;106974;283;891824;-44
2023/05/22 05:54:59;;;;;;;8.20;5.50;;;;;;;;;;107539;283;175504;-43
2023/05/22 05:57:34;;;;;;;7.40;5.70;;;;;;;;;;107631;283;38703;-43
2023/05/22 06:00:10;;;;;;;7.70;5.60;;;;;;;;;;107589;282;40769;-47
2023/05/22 06:02:44;;;;;;;8.00;5.60;;;;;;;;;;107632;282;42652;-43
2023/05/22 06:05:21;;;;;;;7.60;5.40;;;;;;;;;;107632;285;42136;-42
2023/05/22 06:07:58;;;;;;;7.30;5.50;;;;;;;;;;107621;282;38525;-42
2023/05/22 06:10:32;;;;;;;7.80;5.70;;;;;;;;;;107610;282;39494;-42
2023/05/22 06:13:05;;;;;;;9.30;5.40;;;;;;;;;;107618;282;44052;-43
2023/05/22 06:15:39;;;;;;;8.20;5.80;;;;;;;;;;107592;282;42214;-43
2023/05/22 06:18:13;;;;;;;7.60;5.90;;;;;;;;;;107594;278;38850;-43
2023/05/22 06:20:47;;;;;;;8.50;5.40;;;;;;;;;;107558;283;40036;-44
2023/05/22 06:23:20;;;;;;;7.00;5.20;;;;;;;;;;107631;283;42637;-42
2023/05/22 06:25:54;;;;;;;7.00;5.40;;;;;;;;;;107658;283;43302;-44
2023/05/22 06:28:28;;;;;;;7.80;5.50;;;;;;;;;;107641;286;38934;-44
2023/05/22 06:31:01;;;;;;;8.00;5.40;;;;;;;;;;107360;285;40874;-44
2023/05/22 06:33:39;;;;;;;6.80;5.00;;;;;;;;;;107447;284;42690;-43
2023/05/22 06:36:14;;;;;;;7.00;5.20;;;;;;;;;;107619;285;43480;-42
2023/05/22 06:38:50;;;;;;;7.00;5.20;;;;;;;;;;107627;285;38726;-43
2023/05/22 06:41:27;;;;;;;7.60;5.20;;;;;;;;;;107634;283;41044;-42
2023/05/22 06:44:04;;;;;;;8.60;5.50;;;;;;;;;;107567;285;43984;-39
2023/05/22 06:46:38;;;;;;;7.30;5.00;;;;;;;;;;107600;283;42188;-42
2023/05/22 06:49:13;;;;;;;7.90;5.50;;;;;;;;;;107390;285;38927;-41
2023/05/22 06:51:48;;;;;;;9.60;5.70;;;;;;;;;;107585;283;39724;-43
2023/05/22 06:54:27;;;;;;;7.40;5.30;;;;;;;;;;107620;286;43067;-38
2023/05/22 06:57:03;;;;;;;6.90;5.10;;;;;;;;;;107634;283;41905;-41
2023/05/22 06:59:38;;;;;;;7.90;5.40;;;;;;;;;;107443;283;39841;-43
2023/05/22 07:02:15;;;;;;;7.10;5.50;;;;;;;;;;107621;283;40801;-46
2023/05/22 07:04:54;;;;;;;7.80;5.00;;;;;;;;;;107600;283;43045;-39
2023/05/22 07:07:31;;;;;;;7.40;5.20;;;;;;;;;;107587;277;41862;-38
2023/05/22 07:10:06;;;;;;;7.40;5.30;;;;;;;;;;107576;282;39148;-39
2023/05/22 07:12:42;;;;;;;7.60;5.40;;;;;;;;;;107547;283;39891;-37
2023/05/22 07:15:17;;;;;;;6.50;5.20;;;;;;;;;;107583;285;42971;-38
2023/05/22 07:17:53;;;;;;;6.80;4.90;;;;;;;;;;107394;285;42185;-35
2023/05/22 07:20:26;;;;;;;7.70;5.10;;;;;;;;;;107486;283;38815;-36
2023/05/22 07:23:04;;;;;;;6.50;4.80;;;;;;;;;;107362;288;39700;-35
2023/05/22 07:25:39;;;;;;;6.90;4.50;;;;;;;;;;107512;283;42905;-37
2023/05/22 07:28:13;;;;;;;7.50;5.10;;;;;;;;;;107507;283;41889;-39
2023/05/22 07:30:49;;;;;;;7.00;5.30;;;;;;;;;;107532;283;38736;-39
2023/05/22 07:33:22;;;;;;;7.20;5.00;;;;;;;;;;107589;283;39448;-44
2023/05/22 07:35:56;;;;;;;7.90;5.20;;;;;;;;;;107626;285;42822;-45
2023/05/22 07:38:29;;;;;;;7.90;5.10;;;;;;;;;;107552;283;43182;-45
2023/05/22 07:41:05;;;;;;;7.20;4.70;;;;;;;;;;107527;286;38763;-43
2023/05/22 07:43:41;;;;;;;7.70;5.00;;;;;;;;;;107521;286;40842;-40
2023/05/22 07:46:15;;;;;;;7.20;4.80;;;;;;;;;;107555;287;42983;-48
2023/05/22 07:48:48;;;;;;;7.50;5.10;;;;;;;;;;107556;286;42296;-43
2023/05/22 07:51:22;;;;;;;5.90;4.30;;;;;;;;;;107553;283;38827;-43
2023/05/22 07:53:56;;;;;;;7.10;4.50;;;;;;;;;;107516;277;40921;-42
2023/05/22 07:56:33;;;;;;;6.40;4.60;;;;;;;;;;107668;286;43008;-42
2023/05/22 07:59:07;;;;;;;7.10;4.60;;;;;;;;;;107500;286;43277;-43
2023/05/22 08:01:41;;;;;;;6.90;4.90;;;;;;;;;;107690;278;38797;-42
2023/05/22 08:04:17;;;;;;;6.90;4.40;;;;;;;;;;107616;290;39736;-41
2023/05/22 08:06:52;;;;;;;7.20;4.20;;;;;;;;;;107650;283;42969;-41
2023/05/22 08:09:27;;;;;;;7.00;4.40;;;;;;;;;;107622;283;43448;-41
2023/05/22 08:12:01;;;;;;;7.60;4.50;;;;;;;;;;107650;283;38760;-41
2023/05/22 08:14:36;;;;;;;6.40;4.30;;;;;;;;;;107631;278;39728;-41
2023/05/22 08:17:11;;;;;;;7.20;4.10;;;;;;;;;;107609;278;42869;-44
2023/05/22 08:19:47;;;;;;;6.20;4.30;;;;;;;;;;107629;286;43247;-44
2023/05/22 08:22:25;;;;;;;6.50;4.30;;;;;;;;;;107642;283;40058;-44
2023/05/22 08:25:05;;;;;;;6.60;3.90;;;;;;;;;;107612;285;46750;-45
2023/05/22 08:27:39;;;;;;;6.80;4.00;;;;;;;;;;107530;283;175482;-44
2023/05/22 08:30:17;;;;;;;7.00;4.00;;;;;;;;;;107660;283;43295;-44
2023/05/22 08:32:55;;;;;;;6.20;3.90;;;;;;;;;;107626;286;38855;-44
2023/05/22 08:35:29;;;;;;;5.30;3.80;;;;;;;;;;107625;283;48005;-43
2023/05/22 08:38:03;;;;;;;6.00;4.00;;;;;;;;;;107630;283;42874;-44
2023/05/22 08:40:40;;;;;;;6.70;3.70;;;;;;;;;;107649;283;42318;-38
2023/05/22 08:43:21;;;;;;;6.40;3.80;;;;;;;;;;107601;286;38759;-37
2023/05/22 08:45:59;;;;;;;5.80;3.70;;;;;;;;;;107615;283;39810;-37
2023/05/22 08:48:35;;;;;;;5.70;3.50;;;;;;;;;;107580;283;42880;-37
2023/05/22 08:51:15;;;;;;;6.00;3.70;;;;;;;;;;107590;285;41927;-37
2023/05/22 08:53:53;;;;;;;5.60;3.60;;;;;;;;;;107613;283;39865;-37
2023/05/22 08:56:28;;;;;;;5.00;3.60;;;;;;;;;;107662;283;39835;-37
2023/05/22 08:59:04;;;;;;;4.90;3.50;;;;;;;;;;107599;283;42991;-37
2023/05/22 09:01:38;;;;;;;5.90;3.60;;;;;;;;;;107593;286;44223;-37
2023/05/22 09:04:13;;;;;;;5.70;3.70;;;;;;;;;;107553;289;39016;-37
2023/05/22 09:06:50;;;;;;;5.40;3.20;;;;;;;;;;107641;285;39681;-37
2023/05/22 09:09:24;;;;;;;5.90;3.40;;;;;;;;;;107594;278;42971;-37
2023/05/22 09:11:58;;;;;;;5.10;3.40;;;;;;;;;;107631;286;42233;-37
2023/05/22 09:14:39;;;;;;;5.30;3.20;;;;;;;;;;107564;285;38862;-37
2023/05/22 09:17:17;;;;;;;5.40;3.30;;;;;;;;;;107135;283;513306;-37
2023/05/22 09:19:50;;;;;;;5.60;3.30;;;;;;;;;;107616;285;42858;-37
2023/05/22 09:22:39;;;;;;;5.50;3.20;;;;;;;;;;107655;283;42262;-37
2023/05/22 09:25:21;;;;;;;5.20;3.20;;;;;;;;;;107572;283;38799;-37
2023/05/22 09:27:55;;;;;;;5.70;3.30;;;;;;;;;;107643;283;39685;-37
2023/05/22 09:30:36;;;;;;;4.90;3.30;;;;;;;;;;107645;283;42832;-37
2023/05/22 09:33:16;;;;;;;5.90;3.20;;;;;;;;;;107626;283;42158;-36
2023/05/22 09:35:50;;;;;;;5.50;3.30;;;;;;;;;;107476;286;175464;-34
2023/05/22 09:38:28;;;;;;;5.60;3.10;;;;;;;;;;107627;283;41013;-37
2023/05/22 09:41:02;;;;;;;5.60;3.00;;;;;;;;;;107598;286;44173;-35
2023/05/22 09:43:36;;;;;;;4.80;3.10;;;;;;;;;;107602;286;42202;-34
2023/05/22 09:46:11;;;;;;;4.80;3.10;;;;;;;;;;107616;286;38694;-32
2023/05/22 09:48:52;;;;;;;5.10;3.10;;;;;;;;;;107566;283;41840;-32
2023/05/22 09:51:29;;;;;;;4.60;2.90;;;;;;;;;;107453;284;42674;-32
2023/05/22 09:54:10;;;;;;;5.90;3.00;;;;;;;;;;107520;287;43282;-33
2023/05/22 09:56:50;;;;;;;5.10;2.80;;;;;;;;;;107455;278;38801;-35
2023/05/22 09:59:30;;;;;;;4.60;2.90;;;;;;;;;;107501;286;39452;-34
2023/05/22 10:02:05;;;;;;;5.20;2.90;;;;;;;;;;107530;278;42841;-34
2023/05/22 10:04:41;;;;;;;5.10;2.80;;;;;;;;;;107492;287;42167;-34
2023/05/22 10:07:20;;;;;;;5.30;2.80;;;;;;;;;;107609;286;45750;-34
2023/05/22 10:10:02;;;;;;;4.90;2.60;;;;;;;;;;107499;283;40054;-34
2023/05/22 10:12:40;;;;;;;4.50;2.60;;;;;;;;;;107518;283;43946;-34
2023/05/22 10:15:15;;;;;;;5.00;2.70;;;;;;;;;;107480;283;42631;-33
2023/05/22 10:17:49;;;;;;;5.30;3.00;;;;;;;;;;107519;283;46124;-34
2023/05/22 10:20:26;;;;;;;4.90;2.90;;;;;;;;;;107478;283;41017;-33
2023/05/22 10:23:04;;;;;;;4.80;2.90;;;;;;;;;;107522;284;43073;-33
2023/05/22 10:25:43;;;;;;;4.50;2.60;;;;;;;;;;107502;286;42277;-33
2023/05/22 10:28:27;;;;;;;5.00;2.80;;;;;;;;;;107537;283;38597;-34
2023/05/22 10:31:09;;;;;;;4.50;2.60;;;;;;;;;;107533;286;39521;-32
2023/05/22 10:33:47;;;;;;;4.50;2.80;;;;;;;;;;107365;287;175440;-33
2023/05/22 10:36:36;;;;;;;4.60;2.60;;;;;;;;;;107454;286;41916;-34
2023/05/22 10:39:41;;;;;;;4.50;2.50;;;;;;;;;;107502;286;38740;-35
2023/05/22 10:42:17;;;;;;;4.40;2.70;;;;;;;;;;107502;286;39649;-34
2023/05/22 10:44:51;;;;;;;4.90;2.70;;;;;;;;;;107382;285;43008;-35
2023/05/22 10:47:27;;;;;;;4.50;2.60;;;;;;;;;;107459;286;43172;-33
2023/05/22 10:50:11;;;;;;;5.10;2.50;;;;;;;;;;107612;283;38546;-34
2023/05/22 10:52:44;;;;;;;4.60;2.70;;;;;;;;;;107618;283;39457;-34
2023/05/22 10:55:24;;;;;;;4.70;2.60;;;;;;;;;;107671;283;42634;-34
2023/05/22 10:57:59;;;;;;;4.60;2.60;;;;;;;;;;107595;283;42174;-34
2023/05/22 11:00:33;;;;;;;5.70;2.60;;;;;;;;;;107539;283;38869;-32
2023/05/22 11:03:10;;;;;;;4.40;2.60;;;;;;;;;;107557;283;39443;-32
2023/05/22 11:06:00;;;;;;;4.50;2.40;;;;;;;;;;107482;285;42866;-34
2023/05/22 11:08:44;;;;;;;4.30;2.60;;;;;;;;;;107537;283;42267;-34
2023/05/22 11:11:21;;;;;;;4.60;2.60;;;;;;;;;;107567;286;38781;-34
2023/05/22 11:14:03;;;;;;;4.30;2.60;;;;;;;;;;107570;285;39447;-34
2023/05/22 11:16:39;;;;;;;4.20;2.50;;;;;;;;;;107511;278;43931;-34
2023/05/22 11:19:16;;;;;;;4.50;2.60;;;;;;;;;;107522;285;43307;-34
2023/05/22 11:21:59;;;;;;;4.70;2.60;;;;;;;;;;107558;283;39825;-34
2023/05/22 11:24:40;;;;;;;5.20;2.70;;;;;;;;;;107520;283;39627;-34
2023/05/22 11:27:14;;;;;;;5.80;2.50;;;;;;;;;;107431;283;44098;-35
2023/05/22 11:29:51;;;;;;;4.50;2.60;;;;;;;;;;107493;286;41899;-36
2023/05/22 11:32:28;;;;;;;4.70;2.60;;;;;;;;;;107491;283;38831;-32
2023/05/22 11:35:07;;;;;;;5.20;2.80;;;;;;;;;;107516;285;39490;-32
2023/05/22 11:37:45;;;;;;;5.00;2.70;;;;;;;;;;107466;283;43063;-33
2023/05/22 11:40:23;;;;;;;4.50;2.70;;;;;;;;;;107511;283;42582;-33
2023/05/22 11:42:57;;;;;;;4.40;2.80;;;;;;;;;;107527;283;39238;-33
2023/05/22 11:45:35;;;;;;;4.30;2.50;;;;;;;;;;107506;283;40818;-36
2023/05/22 11:48:13;;;;;;;5.00;2.90;;;;;;;;;;107485;277;44049;-35
2023/05/22 11:50:48;;;;;;;4.80;3.20;;;;;;;;;;107515;286;41910;-36
2023/05/22 11:53:23;;;;;;;5.70;2.70;;;;;;;;;;107505;286;38614;-36
2023/05/22 11:55:56;;;;;;;4.10;2.60;;;;;;;;;;107529;283;39441;-35
2023/05/22 11:58:31;;;;;;;4.70;2.70;;;;;;;;;;107499;290;42651;-35
2023/05/22 12:01:06;;;;;;;5.50;3.00;;;;;;;;;;107568;283;43135;-36
2023/05/22 12:03:41;;;;;;;5.50;2.90;;;;;;;;;;107538;285;39813;-34
2023/05/22 12:06:16;;;;;;;5.20;2.70;;;;;;;;;;107570;283;39710;-36
2023/05/22 12:08:50;;;;;;;5.90;2.60;;;;;;;;;;107531;285;42637;-36
2023/05/22 12:11:25;;;;;;;4.30;2.70;;;;;;;;;;107575;285;41899;-36
2023/05/22 12:14:05;;;;;;;4.70;2.60;;;;;;;;;;107565;285;38787;-36
2023/05/22 12:16:39;;;;;;;4.30;2.50;;;;;;;;;;107569;286;39630;-34
2023/05/22 12:19:13;;;;;;;4.20;2.60;;;;;;;;;;107528;283;42669;-34
2023/05/22 12:21:50;;;;;;;6.30;4.00;;;;;;;;;;107548;283;42300;-34
2023/05/22 12:24:24;;;;;;;8.00;4.30;;;;;;;;;;107594;283;38595;-34
2023/05/22 12:26:59;;;;;;;7.90;3.70;;;;;;;;;;107547;286;39444;-33
2023/05/22 12:29:35;;;;;;;6.10;3.90;;;;;;;;;;107406;283;175166;-34
2023/05/22 12:32:11;;;;;;;7.80;4.30;;;;;;;;;;107537;287;41920;-34
2023/05/22 12:34:51;;;;;;;6.10;3.60;;;;;;;;;;107479;286;38739;-33
2023/05/22 12:37:28;;;;;;;5.50;3.30;;;;;;;;;;107490;283;40776;-33
2023/05/22 12:40:08;;;;;;;5.30;3.40;;;;;;;;;;107438;284;42868;-33
2023/05/22 12:42:44;;;;;;;5.60;3.10;;;;;;;;;;107497;283;41924;-34
2023/05/22 12:45:21;;;;;;;5.40;3.10;;;;;;;;;;107480;287;39849;-34
2023/05/22 12:47:55;;;;;;;5.40;3.00;;;;;;;;;;107504;283;39504;-33
2023/05/22 12:50:30;;;;;;;5.30;2.90;;;;;;;;;;107571;282;42671;-34
2023/05/22 12:53:04;;;;;;;5.60;3.10;;;;;;;;;;107657;283;42033;-34
2023/05/22 12:55:40;;;;;;;4.70;2.60;;;;;;;;;;107643;282;38758;-33
2023/05/22 12:58:15;;;;;;;5.20;2.80;;;;;;;;;;107583;286;39559;-34
2023/05/22 13:00:52;;;;;;;5.00;2.70;;;;;;;;;;107559;286;48668;-33
2023/05/22 13:03:28;;;;;;;4.80;2.90;;;;;;;;;;107570;283;42121;-34
2023/05/22 13:06:03;;;;;;;4.90;2.80;;;;;;;;;;107604;283;38525;-35
2023/05/22 13:08:37;;;;;;;4.90;2.70;;;;;;;;;;107602;283;39449;-35
2023/05/22 13:11:11;;;;;;;4.90;2.80;;;;;;;;;;107599;283;47672;-35
2023/05/22 13:13:44;;;;;;;4.90;2.70;;;;;;;;;;107611;278;43272;-35
2023/05/22 13:16:19;;;;;;;4.70;2.60;;;;;;;;;;107600;289;38720;-35
2023/05/22 13:18:53;;;;;;;5.60;2.70;;;;;;;;;;107644;284;39434;-34
2023/05/22 13:21:28;;;;;;;4.90;2.70;;;;;;;;;;107601;283;48594;-34
2023/05/22 13:24:04;;;;;;;4.90;2.50;;;;;;;;;;107628;283;42085;-34
2023/05/22 13:26:38;;;;;;;4.30;2.60;;;;;;;;;;107617;285;38802;-34
2023/05/22 13:29:11;;;;;;;4.70;2.50;;;;;;;;;;107610;283;39443;-34
2023/05/22 13:31:48;;;;;;;5.10;2.50;;;;;;;;;;107560;278;48666;-34
2023/05/22 13:34:22;;;;;;;5.20;2.60;;;;;;;;;;107477;286;175477;-35
2023/05/22 13:36:57;;;;;;;6.20;2.60;;;;;;;;;;107505;286;38646;-34
2023/05/22 13:39:31;;;;;;;5.00;2.50;;;;;;;;;;107557;283;40734;-34
2023/05/22 13:42:05;;;;;;;4.80;2.50;;;;;;;;;;107561;286;49846;-35
2023/05/22 13:44:40;;;;;;;4.70;2.50;;;;;;;;;;107600;283;41939;-35
2023/05/22 13:47:17;;;;;;;5.20;2.50;;;;;;;;;;107552;283;38699;-34
2023/05/22 13:49:51;;;;;;;5.10;2.70;;;;;;;;;;107562;286;39691;-34
2023/05/22 13:52:27;;;;;;;5.70;3.00;;;;;;;;;;107528;283;48539;-35
2023/05/22 13:55:03;;;;;;;4.60;2.60;;;;;;;;;;107571;278;43270;-36
2023/05/22 13:57:39;;;;;;;5.50;2.70;;;;;;;;;;107635;283;38693;-34
2023/05/22 14:00:16;;;;;;;4.40;2.60;;;;;;;;;;107585;285;40727;-35
2023/05/22 14:02:49;;;;;;;5.60;3.00;;;;;;;;;;107575;286;48814;-35
2023/05/22 14:05:27;;;;;;;6.30;2.90;;;;;;;;;;107593;283;43174;-35
2023/05/22 14:08:01;;;;;;;5.40;2.80;;;;;;;;;;107617;286;38647;-35
2023/05/22 14:10:39;;;;;;;7.10;2.90;;;;;;;;;;107571;283;39466;-34
2023/05/22 14:13:15;;;;;;;5.40;2.90;;;;;;;;;;107561;283;43951;-36
2023/05/22 14:15:50;;;;;;;5.50;2.70;;;;;;;;;;107484;286;41888;-36
2023/05/22 14:18:24;;;;;;;5.10;2.60;;;;;;;;;;107410;285;38773;-36
2023/05/22 14:20:57;;;;;;;4.50;2.50;;;;;;;;;;107520;285;39666;-36
2023/05/22 14:23:34;;;;;;;5.20;2.70;;;;;;;;;;107566;278;43190;-36
2023/05/22 14:26:08;;;;;;;4.60;2.50;;;;;;;;;;107534;286;43136;-35
2023/05/22 14:28:41;;;;;;;5.20;2.90;;;;;;;;;;107606;283;38899;-34
2023/05/22 14:31:15;;;;;;;4.80;2.60;;;;;;;;;;107485;282;39666;-35
2023/05/22 14:33:51;;;;;;;6.20;2.70;;;;;;;;;;107564;283;42714;-34
2023/05/22 14:36:24;;;;;;;4.80;2.60;;;;;;;;;;107558;282;41984;-34
2023/05/22 14:38:59;;;;;;;5.10;2.60;;;;;;;;;;107609;285;38548;-33
2023/05/22 14:41:32;;;;;;;4.80;2.80;;;;;;;;;;107397;283;175499;-33
2023/05/22 14:44:06;;;;;;;5.60;2.80;;;;;;;;;;107571;283;42867;-33
2023/05/22 14:46:43;;;;;;;5.00;2.80;;;;;;;;;;107574;283;41927;-34
2023/05/22 14:49:19;;;;;;;5.20;2.70;;;;;;;;;;107630;283;38560;-36
2023/05/22 14:51:55;;;;;;;4.70;2.50;;;;;;;;;;107547;283;39639;-33
2023/05/22 14:54:29;;;;;;;4.80;2.80;;;;;;;;;;107583;286;42846;-35
2023/05/22 14:57:02;;;;;;;4.60;2.80;;;;;;;;;;107584;286;41857;-35
2023/05/22 14:59:35;;;;;;;4.40;2.50;;;;;;;;;;107612;283;39820;-35
2023/05/22 15:02:12;;;;;;;4.80;2.60;;;;;;;;;;107619;283;39443;-34
2023/05/22 15:04:49;;;;;;;4.20;2.50;;;;;;;;;;107599;277;42717;-32
2023/05/22 15:07:26;;;;;;;4.80;2.50;;;;;;;;;;107643;283;42104;-33
2023/05/22 15:10:17;;;;;;;4.70;2.60;;;;;;;;;;107463;283;175441;-33
2023/05/22 15:12:55;;;;;;;5.40;2.70;;;;;;;;;;107519;286;39860;-33
2023/05/22 15:15:28;;;;;;;5.40;2.60;;;;;;;;;;107485;283;42807;-33
2023/05/22 15:18:03;;;;;;;4.70;2.50;;;;;;;;;;107542;283;41874;-33
2023/05/22 15:20:38;;;;;;;5.40;2.70;;;;;;;;;;107510;286;38529;-33
2023/05/22 15:23:14;;;;;;;5.30;2.80;;;;;;;;;;107494;283;39504;-33
2023/05/22 15:25:48;;;;;;;5.40;2.90;;;;;;;;;;107578;277;42664;-33
2023/05/22 15:28:27;;;;;;;5.40;2.50;;;;;;;;;;107529;283;42162;-33
2023/05/22 15:31:01;;;;;;;4.40;2.70;;;;;;;;;;107516;283;38558;-32
2023/05/22 15:33:35;;;;;;;5.00;2.70;;;;;;;;;;107480;283;39817;-33
2023/05/22 15:36:09;;;;;;;4.10;2.60;;;;;;;;;;107500;286;43942;-33